Impacts METAR Board INFO
IDs:

KCVG - Cincinnati Intl, KY, US

Updated at: 1252 UTC 18 Dec 2017
Potential Impact None Slight Moderate High
Time18/00Z 18/01Z 18/02Z 18/03Z 18/04Z 18/05Z 18/06Z 18/07Z 18/08Z 18/09Z 18/10Z 18/11Z 18/12Z
VIS10 10 10 10 10 9 8 6 4 0.13 0.13 1 1
CIG36 34 29 21 12 8 19 5 4 2 2 3 3
CoverOVCOVCOVCOVCOVCOVCOVCOVCOVCOVCOVCOVCOVC
FltCatVFRVFRMVFRMVFRMVFRIFRMVFRIFRLIFRLIFRLIFRLIFRLIFR
WX-------------DZ-DZ BRBRBRBRBR-RA BR
WDir190190200210200210200190190200190200220
WSpd6 9 8 7 6 7 7 6 6 5 5 7 7
WGst-- -- -- -- -- -- -- -- -- -- -- -- --
Raw hourly METARs
KCVG 172352Z 19006KT 10SM OVC036 07/01 A3009 RMK AO2 SLP191 T00670006 10083 20061 56002
KCVG 180052Z 19009KT 10SM BKN034 OVC043 06/01 A3009 RMK AO2 SLP193 T00610011
KCVG 180152Z 20008KT 10SM BKN029 OVC034 06/02 A3012 RMK AO2 SLP203 T00610017
KCVG 180252Z 21007KT 10SM BKN021 OVC033 06/03 A3012 RMK AO2 SLP202 T00560028 50010
KCVG 180352Z 20006KT 10SM BKN012 OVC029 05/04 A3011 RMK AO2 SLP199 T00500039
KCVG 180452Z 21007KT 9SM OVC008 05/04 A3011 RMK AO2 SLP196 T00500039 400830022
KCVG 180603Z 20007KT 8SM -DZ SCT007 OVC019 05/04 A3009 RMK AO2 P0000 T00500044
KCVG 180702Z 19006KT 6SM -DZ BR BKN005 OVC016 05/04 A3008 RMK AO2 P0000 T00500044
KCVG 180752Z 19006KT 4SM BR OVC004 05/05 A3009 RMK AO2 DZE45 SLP192 P0000 T00500050
KCVG 180852Z 20005KT 1/8SM R18C/P6000FT BR OVC002 04/04 A3008 RMK AO2 SFC VIS 1 1/2 SLP188 60000 T00440044 57004
KCVG 180952Z 19005KT 1/8SM R18C/P6000FT BR OVC002 05/05 A3007 RMK AO2 SFC VIS 2 1/2 SLP184 T00500050
KCVG 181052Z 20007KT 1SM R18C/P6000FT BR OVC003 05/05 A3007 RMK AO2 SFC VIS 4 SLP183 T00500050
KCVG 181152Z COR 22007KT 1SM R18C/P6000FT -RA BR OVC003 06/06 A3008 RMK AO2 SFC VIS 2 SLP188 DZB14E35RB35 PCPN LGT P0001 60001 70001 T00560056 10056 20044 55000